createdAt,value
2018-03-11T00:00:57.862Z,46.04
2018-03-11T00:01:57.847Z,45.95
2018-03-11T00:02:57.832Z,46.23
2018-03-11T00:03:57.821Z,46.04
2018-03-11T00:04:57.817Z,45.85
2018-03-11T00:05:57.791Z,46.04
2018-03-11T00:06:57.783Z,45.85
2018-03-11T00:07:57.766Z,46.04
2018-03-11T00:08:57.749Z,46.04
2018-03-11T00:09:57.751Z,45.76
2018-03-11T00:10:57.724Z,45.95
2018-03-11T00:11:57.710Z,45.76
2018-03-11T00:12:57.696Z,46.14
2018-03-11T00:13:57.681Z,46.04
2018-03-11T00:14:57.667Z,46.14
2018-03-11T00:15:57.673Z,46.14
2018-03-11T00:16:57.648Z,45.95
2018-03-11T00:17:57.626Z,45.95
2018-03-11T00:18:57.614Z,45.95
2018-03-11T00:19:57.599Z,46.04
2018-03-11T00:20:57.599Z,46.04
2018-03-11T00:21:57.569Z,45.95
2018-03-11T00:22:57.557Z,46.04
2018-03-11T00:23:57.546Z,46.14
2018-03-11T00:24:57.533Z,46.33
2018-03-11T00:25:57.524Z,45.95
2018-03-11T00:26:57.503Z,46.33
2018-03-11T00:27:57.487Z,45.95
2018-03-11T00:28:57.474Z,46.33
2018-03-11T00:29:57.460Z,46.23
2018-03-11T00:30:57.456Z,46.23
2018-03-11T00:31:57.433Z,46.14
2018-03-11T00:32:57.416Z,46.04
2018-03-11T00:33:57.406Z,46.62
2018-03-11T00:34:57.390Z,46.62
2018-03-11T00:35:57.401Z,46.62
2018-03-11T00:36:57.361Z,46.43
2018-03-11T00:37:57.348Z,46.53
2018-03-11T00:38:57.334Z,46.53
2018-03-11T00:39:57.326Z,46.62
2018-03-11T00:40:57.306Z,46.62
2018-03-11T00:41:57.303Z,46.53
2018-03-11T00:42:57.279Z,46.62
2018-03-11T00:43:57.266Z,46.53
2018-03-11T00:44:57.250Z,46.72
2018-03-11T00:45:57.241Z,46.53
2018-03-11T00:46:57.482Z,46.04
2018-03-11T00:47:57.209Z,46.53
2018-03-11T00:48:57.197Z,46.62
2018-03-11T00:49:57.182Z,46.53
2018-03-11T00:50:57.171Z,46.62
2018-03-11T00:51:57.156Z,46.72
2018-03-11T00:52:57.149Z,46.43
2018-03-11T00:53:57.128Z,46.23
2018-03-11T00:54:57.115Z,46.62
2018-03-11T00:55:57.102Z,46.23
2018-03-11T00:57:07.613Z,46.72
2018-03-11T00:57:57.092Z,46.62
2018-03-11T00:58:57.063Z,46.62
2018-03-11T00:59:57.038Z,46.33
2018-03-11T01:00:57.043Z,46.23
2018-03-11T01:01:57.016Z,46.33
2018-03-11T01:02:57.013Z,46.23
2018-03-11T01:03:56.988Z,46.23
2018-03-11T01:04:56.978Z,46.04
2018-03-11T01:05:56.963Z,46.04
2018-03-11T01:06:56.946Z,45.95
2018-03-11T01:07:56.947Z,46.14
2018-03-11T01:32:18.559Z,46.62
